Current | Forecast
Updated: 7:00 AM EET on February 21, 2018
Observed at L'viv, Ukraine
Temperature -3°C
Windchill -7°C
Humidity 86%
Dew Point -5°C
Wind East at 11 km/h
Pressure 1017 hPa (Steady)
Conditions Light Snow
Visibility 5.0 kilometers
UV 0 out of 16
Clouds Overcast (OVC) : 426 m
Yesterday's Maximum 0°C
Yesterday's Minimum -8°C approx.
Yesterday's Heating Degree Days 40 approx.
Sunrise7:26 AM EET
Sunset5:57 PM EET
Moon Rise10:07 AM EET
Moon Set
Moon PhaseMoon Phase
Waxing Crescent
Raw METARMETAR UKLL 210500Z 09003MPS 5000 -SN OVC014 M03/M05 Q1017 R13/490337 NOSIG


Monday
. High: 62° F.
Tuesday
. High: 66° F.
Wednesday
. High: 77° F.
Thursday
. High: 82° F.
Friday
. High: 68° F.
Saturday
. High: 66° F.
Sunday
. High: 71° F.
Monday
. High: 75° F.

Units: English | Metric

Find the Weather for any City, State or Zipcode, or Country:

U.S. State List | Severe Weather | Tropical Storms | Ski Conditions
United States | Canada | Central America | South America | Asia | Europe | Australia | Africa | Islands

Weather Underground

© Copyright 2018
The Weather Company, LLC